map of TRW home
TRW - Airport
Location
City:  Tarawa Island, Gilbert Islands, Kiribati
Name:Bonriki International Airport
ICAO:NGTA
IATA:TRW

Details
Type:Airport (Aerodrome, Airfield)
Use:International (customs port of entry)
Latitude:122'54"N (1.381636)
Longitude:17308'49"E (173.147036)
Datum:WGS 1984
Elevation:9 ft (3 m)
Variation:9.26E (WMM2015 magnetic declination)
0.03 annual change
Runways:1
Longest:6598 × 135 ft (2011 × 41 m), paved

Time
Time Zone:UTC+12
Local Time:

Weather
METAR:NGTA 221700Z 10003KT 9999 -SHRA FEW016CB SCT018TCU OVC100 28/27 Q////
TAF:NGTA 221716Z 2218/2318 10009KT 9999 -SHRA FEW018 SCT100
TEMPO 2218/2312 3000 TSRA BKN014 FEW016CB PROB40 2212/2218 1000 +TSRA BKN014 SCT016CB

Related Locations
Nearby:
Farthest:CPA: 12031 mi / 19362 km
Cape Palmas [A. Tubman], LR

Find:

   beyond  
but within

Other Information
Maps:
NOTAMs:
Links:
Sources:

  
  • flag of Kiribati
  

Sectional Chart

Flight Planning
at skyvector.com

Satellite Image

Google Maps Satellite view

 

Copyright © 2004-2019 Karl L. Swartz. All rights reserved.
The Great Circle Mapper name and logo are trademarks of the Great Circle Mapper.
All other trademarks mentioned herein belong to their respective owners.
Please see credits for attibutions and further copyright information.

  Follow gcmap on Facebook Follow gcmap on Twitter Follow gcmap on Google+ GCmap on LinkedIn

hCard Microformat

Geo Microformat